createdAt,value
2023-04-29T00:00:18.575Z,20.10
2023-04-29T00:02:45.694Z,17.92
2023-04-29T00:05:13.547Z,19.60
2023-04-29T00:07:40.602Z,20.75
2023-04-29T00:10:08.318Z,22.75
2023-04-29T00:12:35.260Z,23.75
2023-04-29T00:15:03.141Z,21.55
2023-04-29T00:17:30.417Z,23.83
2023-04-29T00:19:57.340Z,19.80
2023-04-29T00:22:24.789Z,23.23
2023-04-29T00:24:52.130Z,21.15
2023-04-29T00:27:19.106Z,20.13
2023-04-29T00:29:46.061Z,20.83
2023-04-29T00:32:12.985Z,23.27
2023-04-29T00:34:39.917Z,22.13
2023-04-29T00:37:07.486Z,20.42
2023-04-29T00:39:34.369Z,19.02
2023-04-29T00:42:03.420Z,17.33
2023-04-29T00:44:30.399Z,19.08
2023-04-29T00:46:57.550Z,19.05
2023-04-29T00:49:24.405Z,16.92
2023-04-29T00:51:51.575Z,19.25
2023-04-29T00:54:19.096Z,15.57
2023-04-29T00:56:47.361Z,15.85
2023-04-29T00:59:16.916Z,17.60
2023-04-29T01:01:44.855Z,15.90
2023-04-29T01:04:12.225Z,16.98
2023-04-29T01:07:00.493Z,17.63
2023-04-29T01:09:58.169Z,17.67
2023-04-29T01:12:41.604Z,16.02
2023-04-29T01:15:26.213Z,15.57
2023-04-29T01:18:12.898Z,17.98
2023-04-29T01:20:42.099Z,19.88
2023-04-29T01:23:08.990Z,17.58
2023-04-29T01:25:35.937Z,21.80
2023-04-29T01:28:22.948Z,19.48
2023-04-29T01:31:06.505Z,21.67
2023-04-29T01:33:56.298Z,16.77
2023-04-29T01:36:44.294Z,17.58
2023-04-29T01:39:50.589Z,22.08
2023-04-29T01:42:33.692Z,14.88
2023-04-29T01:45:06.480Z,16.17
2023-04-29T01:47:34.029Z,14.98
2023-04-29T01:50:02.458Z,16.83
2023-04-29T01:52:29.336Z,19.10
2023-04-29T01:54:56.574Z,17.23
2023-04-29T01:57:23.560Z,15.77
2023-04-29T01:59:50.609Z,16.40
2023-04-29T02:02:21.317Z,21.40
2023-04-29T02:04:50.654Z,15.75
2023-04-29T02:07:17.894Z,15.68
2023-04-29T02:09:44.791Z,18.00
2023-04-29T02:12:11.730Z,15.07
2023-04-29T02:14:38.730Z,16.85
2023-04-29T02:17:05.770Z,16.58
2023-04-29T02:19:32.654Z,17.02
2023-04-29T02:21:59.531Z,14.75
2023-04-29T02:24:26.584Z,14.93
2023-04-29T02:26:53.600Z,14.10
2023-04-29T02:29:20.818Z,21.13
2023-04-29T02:31:47.805Z,18.38
2023-04-29T02:34:14.698Z,15.57
2023-04-29T02:36:41.656Z,15.18
2023-04-29T02:39:08.581Z,15.95
2023-04-29T02:41:35.494Z,18.13
2023-04-29T02:44:02.404Z,17.15
2023-04-29T02:46:29.398Z,15.05
2023-04-29T02:48:56.353Z,18.85
2023-04-29T02:51:23.366Z,21.05
2023-04-29T02:53:50.503Z,18.02
2023-04-29T02:56:17.366Z,18.67
2023-04-29T02:58:44.286Z,18.95
2023-04-29T03:01:11.589Z,18.10
2023-04-29T03:03:39.089Z,26.33
2023-04-29T03:06:07.180Z,20.35
2023-04-29T03:08:34.069Z,17.77
2023-04-29T03:11:00.956Z,15.60
2023-04-29T03:13:27.900Z,22.85
2023-04-29T03:15:54.870Z,20.25
2023-04-29T03:18:21.749Z,18.45
2023-04-29T03:20:48.626Z,15.00
2023-04-29T03:23:15.585Z,16.67
2023-04-29T03:25:42.519Z,16.35
2023-04-29T03:28:09.415Z,19.13
2023-04-29T03:30:36.747Z,17.73
2023-04-29T03:33:04.123Z,22.75
2023-04-29T03:35:31.056Z,17.90
2023-04-29T03:37:57.956Z,17.05
2023-04-29T03:40:24.909Z,21.83
2023-04-29T03:42:51.896Z,16.00
2023-04-29T03:45:18.954Z,20.33
2023-04-29T03:47:45.921Z,18.67
2023-04-29T03:50:12.887Z,20.08
2023-04-29T03:52:39.952Z,19.70
2023-04-29T03:55:07.495Z,19.65
2023-04-29T03:57:34.420Z,17.95
2023-04-29T04:00:01.311Z,16.35
2023-04-29T04:02:28.540Z,19.55
2023-04-29T04:04:55.765Z,18.02
2023-04-29T04:07:22.780Z,18.70
2023-04-29T04:09:49.669Z,21.02
2023-04-29T04:12:16.688Z,21.63
2023-04-29T04:14:43.541Z,16.38
2023-04-29T04:17:10.660Z,18.95
2023-04-29T04:19:37.522Z,17.05
2023-04-29T04:22:04.860Z,18.88
2023-04-29T04:24:31.769Z,20.73
2023-04-29T04:26:58.648Z,19.95
2023-04-29T04:29:25.522Z,21.33
2023-04-29T04:31:52.391Z,18.73
2023-04-29T04:34:19.307Z,18.15
2023-04-29T04:36:46.950Z,17.58
2023-04-29T04:39:13.865Z,20.77
2023-04-29T04:41:40.844Z,22.13
2023-04-29T04:44:07.728Z,20.25
2023-04-29T04:46:35.171Z,16.13
2023-04-29T04:49:02.045Z,18.85
2023-04-29T04:51:29.363Z,19.95
2023-04-29T04:53:56.231Z,20.50
2023-04-29T04:56:23.172Z,18.55
2023-04-29T04:58:50.259Z,20.83
2023-04-29T05:01:17.186Z,20.05
2023-04-29T05:03:44.356Z,21.58
2023-04-29T05:06:11.465Z,18.63
2023-04-29T05:08:38.332Z,21.90
2023-04-29T05:11:05.498Z,20.67
2023-04-29T05:13:34.391Z,21.40
2023-04-29T05:16:05.888Z,20.98
2023-04-29T05:18:33.585Z,19.37
2023-04-29T05:21:00.819Z,23.55
2023-04-29T05:23:28.109Z,21.48
2023-04-29T05:25:55.500Z,19.90
2023-04-29T05:28:22.375Z,19.08
2023-04-29T05:30:52.137Z,18.10
2023-04-29T05:33:19.060Z,23.42
2023-04-29T05:35:46.134Z,23.25
2023-04-29T05:38:13.319Z,22.45
2023-04-29T05:40:40.725Z,20.48
2023-04-29T05:43:07.686Z,19.23
2023-04-29T05:45:34.561Z,27.58
2023-04-29T05:48:01.484Z,20.75
2023-04-29T05:50:28.522Z,24.13
2023-04-29T05:52:56.621Z,22.60
2023-04-29T05:55:23.969Z,23.50
2023-04-29T05:57:50.833Z,21.75
2023-04-29T06:00:17.692Z,21.02
2023-04-29T06:02:57.544Z,22.63
2023-04-29T06:05:26.950Z,24.20
2023-04-29T06:07:54.381Z,40.92
2023-04-29T06:10:21.318Z,23.13
2023-04-29T06:12:51.446Z,22.58
2023-04-29T06:15:18.478Z,25.35
2023-04-29T06:17:45.421Z,25.52
2023-04-29T06:20:13.053Z,22.55
2023-04-29T06:22:40.365Z,22.33
2023-04-29T06:25:07.837Z,28.63
2023-04-29T06:27:34.728Z,22.45
2023-04-29T06:30:01.828Z,24.75
2023-04-29T06:32:28.765Z,25.42
2023-04-29T06:34:56.077Z,22.48
2023-04-29T06:37:23.026Z,23.35
2023-04-29T06:39:50.085Z,21.95
2023-04-29T06:42:17.139Z,27.77
2023-04-29T06:44:44.449Z,24.23
2023-04-29T06:47:11.502Z,26.77
2023-04-29T06:49:38.762Z,24.58
2023-04-29T06:52:05.819Z,23.73
2023-04-29T06:54:32.738Z,25.88
2023-04-29T06:56:59.728Z,26.75
2023-04-29T06:59:26.863Z,31.75
2023-04-29T07:01:53.887Z,24.73
2023-04-29T07:04:21.043Z,23.08
2023-04-29T07:06:48.484Z,25.80
2023-04-29T07:09:15.552Z,25.98
2023-04-29T07:11:42.744Z,26.70
2023-04-29T07:14:10.055Z,24.85
2023-04-29T07:16:37.105Z,26.13
2023-04-29T07:19:04.306Z,24.63
2023-04-29T07:21:31.447Z,26.25
2023-04-29T07:24:01.118Z,20.25
2023-04-29T07:26:28.397Z,25.45
2023-04-29T07:28:55.541Z,24.80
2023-04-29T07:31:23.885Z,24.35
2023-04-29T07:33:51.513Z,24.48
2023-04-29T07:36:18.724Z,24.63
2023-04-29T07:38:45.950Z,24.10
2023-04-29T07:41:12.944Z,24.25
2023-04-29T07:43:42.108Z,26.80
2023-04-29T07:46:09.386Z,25.42
2023-04-29T07:48:39.865Z,27.95
2023-04-29T07:51:07.193Z,65.88
2023-04-29T07:53:34.212Z,27.40
2023-04-29T07:56:07.645Z,23.52
2023-04-29T07:58:35.066Z,23.98
2023-04-29T08:01:10.477Z,24.98
2023-04-29T08:03:40.875Z,24.23
2023-04-29T08:06:08.629Z,21.60
2023-04-29T08:08:36.039Z,21.85
2023-04-29T08:11:03.076Z,21.67
2023-04-29T08:13:30.402Z,23.42
2023-04-29T08:15:58.502Z,24.15
2023-04-29T08:18:25.739Z,23.88
2023-04-29T08:20:53.249Z,27.75
2023-04-29T08:23:20.248Z,23.92
2023-04-29T08:25:47.586Z,47.65
2023-04-29T08:28:14.658Z,23.30
2023-04-29T08:30:41.955Z,25.58
2023-04-29T08:33:09.162Z,25.83
2023-04-29T08:35:39.533Z,22.35
2023-04-29T08:38:07.891Z,24.08
2023-04-29T08:40:36.751Z,24.88
2023-04-29T08:43:05.172Z,26.48
2023-04-29T08:45:34.493Z,26.50
2023-04-29T08:48:04.042Z,26.25
2023-04-29T08:50:31.946Z,24.42
2023-04-29T08:52:59.361Z,25.35
2023-04-29T08:55:27.672Z,26.13
2023-04-29T08:57:57.226Z,24.73
2023-04-29T09:00:25.183Z,27.05
2023-04-29T09:02:57.322Z,21.98
2023-04-29T09:05:27.755Z,24.67
2023-04-29T09:07:59.764Z,24.73
2023-04-29T09:10:27.823Z,25.60
2023-04-29T09:12:58.561Z,28.85
2023-04-29T09:15:25.539Z,23.60
2023-04-29T09:17:53.829Z,24.77
2023-04-29T09:20:23.288Z,24.52
2023-04-29T09:22:53.775Z,24.40
2023-04-29T09:25:21.759Z,21.42
2023-04-29T09:27:48.852Z,23.83
2023-04-29T09:30:16.865Z,25.13
2023-04-29T09:32:48.116Z,24.23
2023-04-29T09:35:27.066Z,23.23
2023-04-29T09:38:07.767Z,23.58
2023-04-29T09:40:43.399Z,22.30
2023-04-29T09:43:19.487Z,21.23
2023-04-29T09:45:48.620Z,23.27
2023-04-29T09:48:17.242Z,23.33
2023-04-29T09:50:45.125Z,24.10
2023-04-29T09:53:28.712Z,24.42
2023-04-29T09:56:02.907Z,29.05
2023-04-29T09:58:38.025Z,23.17
2023-04-29T10:01:06.481Z,25.10
2023-04-29T10:03:36.711Z,24.33
2023-04-29T10:06:07.230Z,21.42
2023-04-29T10:08:35.322Z,24.13
2023-04-29T10:11:05.962Z,26.13
2023-04-29T10:13:38.320Z,23.40
2023-04-29T10:16:21.325Z,23.33
2023-04-29T10:19:04.367Z,23.33
2023-04-29T10:21:32.280Z,140.15
2023-04-29T10:24:02.432Z,20.65
2023-04-29T10:26:31.988Z,21.23
2023-04-29T10:29:01.065Z,24.65
2023-04-29T10:31:28.694Z,21.75
2023-04-29T10:34:01.068Z,32.60
2023-04-29T10:36:31.497Z,29.27
2023-04-29T10:39:05.974Z,50.22
2023-04-29T10:41:47.321Z,23.48
2023-04-29T10:44:14.627Z,22.73
2023-04-29T10:46:42.478Z,35.38
2023-04-29T10:49:11.786Z,39.88
2023-04-29T10:51:43.906Z,29.13
2023-04-29T10:54:25.469Z,44.58
2023-04-29T10:56:54.475Z,26.50
2023-04-29T10:59:43.234Z,37.30
2023-04-29T11:02:16.061Z,29.65
2023-04-29T11:05:10.197Z,27.95
2023-04-29T11:07:37.341Z,29.58
2023-04-29T11:10:07.337Z,25.85
2023-04-29T11:12:34.286Z,23.52
2023-04-29T11:15:05.718Z,24.30
2023-04-29T11:17:38.199Z,22.58
2023-04-29T11:20:14.243Z,21.33
2023-04-29T11:22:51.354Z,22.42
2023-04-29T11:25:18.918Z,21.55
2023-04-29T11:27:49.150Z,23.50
2023-04-29T11:30:17.367Z,31.05
2023-04-29T11:32:44.486Z,23.42
2023-04-29T11:35:12.772Z,24.48
2023-04-29T11:37:41.574Z,27.17
2023-04-29T11:40:12.608Z,19.92
2023-04-29T11:42:48.634Z,23.88
2023-04-29T11:45:18.533Z,40.13
2023-04-29T11:47:48.623Z,27.55
2023-04-29T11:50:20.768Z,16.48
2023-04-29T11:52:49.636Z,21.40
2023-04-29T11:55:16.974Z,24.77
2023-04-29T11:57:44.431Z,23.58
2023-04-29T12:00:13.752Z,26.88
2023-04-29T12:02:47.238Z,28.60
2023-04-29T12:05:17.736Z,29.70
2023-04-29T12:07:45.119Z,22.23
2023-04-29T12:10:12.985Z,30.05
2023-04-29T12:12:41.536Z,20.60
2023-04-29T12:15:13.384Z,33.92
2023-04-29T12:17:41.365Z,24.67
2023-04-29T12:20:11.081Z,21.20
2023-04-29T12:22:38.909Z,18.63
2023-04-29T12:25:08.144Z,21.40
2023-04-29T12:27:42.331Z,19.23
2023-04-29T12:30:11.295Z,18.88
2023-04-29T12:32:41.343Z,20.13
2023-04-29T12:35:19.127Z,41.95
2023-04-29T12:37:52.572Z,27.13
2023-04-29T12:40:21.173Z,19.73
2023-04-29T12:42:48.662Z,18.35
2023-04-29T12:45:33.054Z,19.52
2023-04-29T12:48:01.627Z,21.83
2023-04-29T12:50:34.671Z,16.65
2023-04-29T12:53:03.894Z,23.08
2023-04-29T12:55:38.640Z,23.38
2023-04-29T12:58:09.472Z,21.10
2023-04-29T13:00:46.361Z,23.40
2023-04-29T13:03:15.591Z,19.35
2023-04-29T13:05:43.123Z,23.77
2023-04-29T13:08:10.344Z,22.45
2023-04-29T13:10:37.677Z,20.85
2023-04-29T13:13:04.683Z,21.58
2023-04-29T13:15:33.485Z,23.33
2023-04-29T13:18:00.643Z,23.42
2023-04-29T13:20:28.535Z,32.20
2023-04-29T13:22:55.537Z,30.90
2023-04-29T13:25:22.699Z,22.45
2023-04-29T13:27:49.942Z,20.95
2023-04-29T13:30:17.640Z,22.23
2023-04-29T13:32:53.330Z,20.55
2023-04-29T13:35:25.085Z,22.42
2023-04-29T13:37:54.018Z,21.73
2023-04-29T13:40:21.657Z,19.98
2023-04-29T13:42:50.784Z,19.75
2023-04-29T13:45:28.720Z,20.98
2023-04-29T13:48:06.890Z,24.92
2023-04-29T13:51:14.722Z,26.60
2023-04-29T14:03:25.593Z,29.90
2023-04-29T14:05:52.966Z,29.25
2023-04-29T14:08:19.968Z,25.05
2023-04-29T14:10:48.029Z,26.83
2023-04-29T14:13:15.306Z,24.42
2023-04-29T14:15:42.653Z,24.13
2023-04-29T14:18:11.817Z,24.27
2023-04-29T14:20:39.435Z,25.40
2023-04-29T14:23:07.503Z,20.50
2023-04-29T14:25:34.752Z,24.98
2023-04-29T14:28:04.166Z,23.13
2023-04-29T14:30:34.343Z,21.35
2023-04-29T14:33:03.086Z,24.77
2023-04-29T14:35:34.609Z,22.40
2023-04-29T14:38:03.026Z,18.25
2023-04-29T14:40:30.282Z,23.10
2023-04-29T14:42:57.482Z,21.52
2023-04-29T14:45:26.102Z,23.00
2023-04-29T14:47:53.393Z,21.60
2023-04-29T14:50:20.822Z,23.17
2023-04-29T14:52:47.994Z,23.88
2023-04-29T14:55:15.370Z,86.15
2023-04-29T14:57:42.719Z,29.27
2023-04-29T15:00:12.349Z,34.95
2023-04-29T15:02:39.915Z,47.70
2023-04-29T15:05:07.817Z,24.08
2023-04-29T15:07:38.654Z,23.33
2023-04-29T15:10:07.984Z,22.48
2023-04-29T15:12:35.252Z,21.27
2023-04-29T15:15:02.550Z,23.60
2023-04-29T15:17:29.758Z,20.05
2023-04-29T15:19:57.094Z,23.90
2023-04-29T15:22:26.555Z,22.77
2023-04-29T15:24:53.817Z,19.52
2023-04-29T15:27:21.650Z,20.25
2023-04-29T15:29:49.578Z,22.35
2023-04-29T15:32:18.218Z,21.02
2023-04-29T15:34:45.857Z,23.20
2023-04-29T15:37:13.246Z,25.10
2023-04-29T15:39:41.596Z,21.40
2023-04-29T15:42:10.681Z,21.77
2023-04-29T15:44:37.598Z,27.50
2023-04-29T15:47:04.832Z,20.80
2023-04-29T15:49:32.252Z,24.35
2023-04-29T15:51:59.844Z,21.65
2023-04-29T15:54:27.707Z,19.73
2023-04-29T15:56:55.789Z,40.40
2023-04-29T15:59:23.110Z,33.47
2023-04-29T16:01:50.021Z,31.55
2023-04-29T16:04:17.045Z,27.48
2023-04-29T16:06:44.218Z,60.40
2023-04-29T16:09:12.782Z,68.15
2023-04-29T16:11:39.907Z,30.38
2023-04-29T16:14:07.044Z,23.52
2023-04-29T16:16:34.267Z,36.28
2023-04-29T16:19:01.519Z,58.90
2023-04-29T16:21:29.018Z,63.67
2023-04-29T16:23:56.419Z,63.58
2023-04-29T16:26:23.841Z,99.57
2023-04-29T16:28:51.751Z,83.57
2023-04-29T16:31:20.132Z,95.40
2023-04-29T16:33:47.364Z,35.05
2023-04-29T16:36:15.062Z,36.72
2023-04-29T16:38:42.293Z,46.88
2023-04-29T16:41:09.544Z,40.95
2023-04-29T16:43:36.955Z,52.20
2023-04-29T16:46:04.354Z,66.03
2023-04-29T16:48:31.645Z,53.83
2023-04-29T16:50:59.107Z,43.80
2023-04-29T16:53:26.307Z,44.33
2023-04-29T16:55:54.739Z,37.13
2023-04-29T16:58:23.102Z,34.53
2023-04-29T17:00:50.598Z,42.05
2023-04-29T17:03:18.063Z,35.92
2023-04-29T17:05:45.527Z,38.15
2023-04-29T17:08:14.913Z,39.60
2023-04-29T17:10:46.724Z,41.63
2023-04-29T17:13:16.558Z,40.13
2023-04-29T17:15:44.178Z,43.22
2023-04-29T17:18:15.787Z,46.13
2023-04-29T17:20:45.219Z,50.80
2023-04-29T17:23:13.733Z,51.67
2023-04-29T17:25:41.216Z,49.42
2023-04-29T17:28:12.046Z,49.55
2023-04-29T17:30:42.066Z,46.75
2023-04-29T17:33:13.548Z,49.40
2023-04-29T17:35:41.666Z,42.42
2023-04-29T17:38:09.136Z,47.15
2023-04-29T17:40:38.007Z,51.60
2023-04-29T17:43:08.599Z,45.58
2023-04-29T17:45:43.096Z,44.08
2023-04-29T17:48:11.530Z,37.53
2023-04-29T17:50:40.380Z,35.08
2023-04-29T17:53:10.725Z,37.22
2023-04-29T17:55:41.943Z,44.13
2023-04-29T17:58:09.708Z,44.90
2023-04-29T18:00:39.354Z,45.13
2023-04-29T18:03:10.542Z,39.88
2023-04-29T18:05:38.193Z,41.75
2023-04-29T18:08:06.156Z,44.53
2023-04-29T18:10:35.381Z,34.33
2023-04-29T18:13:04.274Z,43.70
2023-04-29T18:15:34.643Z,40.58
2023-04-29T18:18:04.339Z,42.28
2023-04-29T18:20:34.677Z,33.35
2023-04-29T18:23:04.635Z,34.67
2023-04-29T18:25:40.012Z,64.32
2023-04-29T18:28:24.205Z,39.97
2023-04-29T18:31:05.017Z,34.70
2023-04-29T18:33:32.352Z,37.85
2023-04-29T18:35:59.627Z,36.40
2023-04-29T18:38:26.907Z,34.47
2023-04-29T18:40:54.772Z,35.90
2023-04-29T18:43:27.420Z,38.42
2023-04-29T18:45:59.258Z,37.90
2023-04-29T18:48:28.013Z,38.97
2023-04-29T18:50:59.466Z,44.35
2023-04-29T18:53:27.043Z,40.53
2023-04-29T18:55:54.603Z,35.45
2023-04-29T18:58:22.250Z,32.58
2023-04-29T19:00:49.674Z,36.75
2023-04-29T19:03:17.773Z,35.95
2023-04-29T19:05:46.301Z,37.10
2023-04-29T19:08:16.549Z,37.17
2023-04-29T19:10:45.517Z,41.40
2023-04-29T19:13:19.441Z,35.20
2023-04-29T19:15:50.822Z,65.13
2023-04-29T19:18:20.346Z,60.85
2023-04-29T19:20:49.031Z,70.22
2023-04-29T19:23:16.955Z,58.25
2023-04-29T19:25:45.795Z,55.10
2023-04-29T19:28:13.512Z,52.72
2023-04-29T19:30:40.949Z,54.58
2023-04-29T19:33:12.183Z,39.55
2023-04-29T19:35:39.937Z,37.85
2023-04-29T19:38:08.398Z,39.65
2023-04-29T19:40:35.787Z,38.40
2023-04-29T19:43:04.043Z,38.22
2023-04-29T19:45:31.679Z,37.85
2023-04-29T19:48:02.235Z,35.17
2023-04-29T19:50:30.745Z,34.15
2023-04-29T19:52:59.274Z,38.47
2023-04-29T19:55:27.398Z,35.58
2023-04-29T19:57:54.709Z,32.35
2023-04-29T20:00:23.879Z,30.95
2023-04-29T20:02:53.290Z,31.70
2023-04-29T20:05:20.596Z,32.20
2023-04-29T20:07:50.050Z,29.92
2023-04-29T20:10:18.624Z,33.97
2023-04-29T20:12:46.944Z,28.42
2023-04-29T20:15:14.550Z,40.58
2023-04-29T20:17:43.182Z,30.45
2023-04-29T20:20:11.218Z,30.63
2023-04-29T20:22:39.309Z,28.02
2023-04-29T20:25:08.134Z,32.83
2023-04-29T20:27:37.319Z,29.38
2023-04-29T20:30:06.912Z,28.35
2023-04-29T20:32:38.836Z,24.60
2023-04-29T20:35:08.986Z,28.65
2023-04-29T20:37:40.099Z,23.52
2023-04-29T20:40:10.011Z,23.45
2023-04-29T20:42:39.305Z,27.05
2023-04-29T20:45:07.988Z,22.95
2023-04-29T20:47:36.489Z,21.88
2023-04-29T20:50:04.957Z,28.70
2023-04-29T20:52:34.531Z,26.13
2023-04-29T20:55:04.187Z,23.55
2023-04-29T20:57:33.817Z,22.00
2023-04-29T21:00:01.800Z,23.27
2023-04-29T21:02:29.145Z,19.00
2023-04-29T21:04:56.400Z,22.73
2023-04-29T21:07:24.405Z,24.33
2023-04-29T21:09:51.870Z,21.88
2023-04-29T21:12:20.751Z,21.33
2023-04-29T21:14:51.162Z,20.27
2023-04-29T21:17:19.061Z,22.77
2023-04-29T21:19:46.284Z,23.55
2023-04-29T21:22:13.488Z,21.48
2023-04-29T21:24:40.651Z,18.52
2023-04-29T21:27:10.240Z,20.63
2023-04-29T21:29:41.848Z,22.73
2023-04-29T21:32:09.536Z,21.95
2023-04-29T21:34:36.808Z,19.70
2023-04-29T21:37:04.078Z,20.98
2023-04-29T21:39:32.292Z,21.05
2023-04-29T21:42:01.083Z,22.48
2023-04-29T21:44:28.597Z,21.90
2023-04-29T21:46:56.157Z,19.70
2023-04-29T21:49:23.356Z,20.80
2023-04-29T21:51:51.028Z,18.48
2023-04-29T21:54:18.116Z,21.48
2023-04-29T21:56:45.205Z,19.70
2023-04-29T21:59:12.173Z,21.52
2023-04-29T22:01:45.083Z,17.15
2023-04-29T22:04:12.250Z,19.38
2023-04-29T22:06:41.716Z,18.30
2023-04-29T22:09:09.383Z,18.73
2023-04-29T22:11:36.767Z,20.15
2023-04-29T22:14:03.725Z,18.42
2023-04-29T22:16:30.824Z,21.38
2023-04-29T22:18:58.022Z,21.13
2023-04-29T22:21:25.044Z,21.35
2023-04-29T22:23:51.978Z,24.05
2023-04-29T22:26:18.861Z,19.25
2023-04-29T22:28:46.042Z,17.70
2023-04-29T22:31:12.953Z,19.45
2023-04-29T22:33:39.813Z,19.60
2023-04-29T22:36:07.150Z,17.40
2023-04-29T22:38:35.000Z,17.77
2023-04-29T22:41:01.911Z,21.55
2023-04-29T22:43:28.835Z,19.95
2023-04-29T22:45:57.055Z,20.17
2023-04-29T22:48:27.236Z,23.60
2023-04-29T22:50:59.581Z,20.08
2023-04-29T22:53:27.243Z,19.55
2023-04-29T22:55:59.486Z,19.92
2023-04-29T22:58:26.788Z,20.30
2023-04-29T23:00:57.278Z,21.17
2023-04-29T23:03:24.852Z,18.10
2023-04-29T23:05:52.101Z,18.80
2023-04-29T23:08:18.996Z,18.95
2023-04-29T23:10:49.777Z,18.02
2023-04-29T23:13:17.493Z,19.02
2023-04-29T23:15:45.601Z,18.77
2023-04-29T23:18:13.014Z,20.23
2023-04-29T23:20:40.053Z,19.30
2023-04-29T23:23:06.902Z,21.50
2023-04-29T23:25:34.701Z,17.00
2023-04-29T23:28:01.601Z,17.63
2023-04-29T23:30:28.550Z,16.05
2023-04-29T23:32:55.523Z,16.52
2023-04-29T23:35:22.460Z,19.05
2023-04-29T23:37:49.321Z,18.83
2023-04-29T23:40:16.537Z,18.70
2023-04-29T23:42:43.567Z,16.65
2023-04-29T23:45:10.627Z,20.90
2023-04-29T23:47:37.823Z,18.50
2023-04-29T23:50:05.587Z,18.05
2023-04-29T23:52:32.548Z,20.92
2023-04-29T23:54:59.826Z,24.55
2023-04-29T23:57:26.752Z,18.35
2023-04-29T23:59:53.809Z,18.80
